sensor_id;sensor_type;location;lat;lon;timestamp;pressure;altitude;pressure_sealevel;temperature;humidity
25080;BME280;13071;48.868;9.996;2023-08-06T00:00:29;95808.72;;;15.28;100.00
25080;BME280;13071;48.868;9.996;2023-08-06T00:02:56;95801.34;;;15.28;100.00
25080;BME280;13071;48.868;9.996;2023-08-06T00:05:23;95809.88;;;15.27;100.00
25080;BME280;13071;48.868;9.996;2023-08-06T00:07:50;95811.09;;;15.29;100.00
25080;BME280;13071;48.868;9.996;2023-08-06T00:10:17;95814.16;;;15.24;100.00
25080;BME280;13071;48.868;9.996;2023-08-06T00:12:44;95817.25;;;15.19;100.00
25080;BME280;13071;48.868;9.996;2023-08-06T00:15:12;95817.25;;;15.23;100.00
25080;BME280;13071;48.868;9.996;2023-08-06T00:17:39;95817.59;;;15.14;100.00
25080;BME280;13071;48.868;9.996;2023-08-06T00:20:07;95811.53;;;14.87;100.00
25080;BME280;13071;48.868;9.996;2023-08-06T00:22:34;95814.91;;;14.70;100.00
25080;BME280;13071;48.868;9.996;2023-08-06T00:25:02;95816.66;;;14.96;100.00
25080;BME280;13071;48.868;9.996;2023-08-06T00:27:28;95807.66;;;14.88;100.00
25080;BME280;13071;48.868;9.996;2023-08-06T00:29:55;95812.00;;;14.96;100.00
25080;BME280;13071;48.868;9.996;2023-08-06T00:32:24;95811.25;;;14.99;100.00
25080;BME280;13071;48.868;9.996;2023-08-06T00:34:50;95815.19;;;15.05;100.00
25080;BME280;13071;48.868;9.996;2023-08-06T00:37:17;95810.94;;;15.11;100.00
25080;BME280;13071;48.868;9.996;2023-08-06T00:39:44;95803.56;;;15.16;100.00
25080;BME280;13071;48.868;9.996;2023-08-06T00:42:11;95812.56;;;15.20;100.00
25080;BME280;13071;48.868;9.996;2023-08-06T00:44:38;95813.34;;;15.20;100.00
25080;BME280;13071;48.868;9.996;2023-08-06T00:47:06;95812.16;;;15.14;100.00
25080;BME280;13071;48.868;9.996;2023-08-06T00:49:36;95807.50;;;15.22;100.00
25080;BME280;13071;48.868;9.996;2023-08-06T00:52:04;95814.91;;;15.21;100.00
25080;BME280;13071;48.868;9.996;2023-08-06T00:54:31;95814.88;;;15.18;100.00
25080;BME280;13071;48.868;9.996;2023-08-06T00:56:58;95807.09;;;15.16;100.00
25080;BME280;13071;48.868;9.996;2023-08-06T00:59:26;95805.50;;;15.15;100.00
25080;BME280;13071;48.868;9.996;2023-08-06T01:01:53;95804.34;;;15.16;100.00
25080;BME280;13071;48.868;9.996;2023-08-06T01:04:19;95813.31;;;15.17;100.00
25080;BME280;13071;48.868;9.996;2023-08-06T01:06:55;95803.94;;;15.10;100.00
25080;BME280;13071;48.868;9.996;2023-08-06T01:09:34;95810.56;;;15.13;100.00
25080;BME280;13071;48.868;9.996;2023-08-06T01:12:06;95808.63;;;15.13;100.00
25080;BME280;13071;48.868;9.996;2023-08-06T01:14:45;95800.84;;;15.12;100.00
25080;BME280;13071;48.868;9.996;2023-08-06T01:17:14;95796.50;;;15.04;100.00
25080;BME280;13071;48.868;9.996;2023-08-06T01:19:41;95794.66;;;15.19;100.00
25080;BME280;13071;48.868;9.996;2023-08-06T01:22:09;95799.72;;;15.20;100.00
25080;BME280;13071;48.868;9.996;2023-08-06T01:24:35;95794.22;;;15.09;100.00
25080;BME280;13071;48.868;9.996;2023-08-06T01:27:05;95789.91;;;15.08;100.00
25080;BME280;13071;48.868;9.996;2023-08-06T01:29:37;95783.25;;;15.06;100.00
25080;BME280;13071;48.868;9.996;2023-08-06T01:32:09;95790.69;;;15.09;100.00
25080;BME280;13071;48.868;9.996;2023-08-06T01:34:39;95784.47;;;15.08;100.00
25080;BME280;13071;48.868;9.996;2023-08-06T01:37:06;95780.94;;;15.04;100.00
25080;BME280;13071;48.868;9.996;2023-08-06T01:39:35;95777.44;;;15.07;100.00
25080;BME280;13071;48.868;9.996;2023-08-06T01:42:02;95771.22;;;15.07;100.00
25080;BME280;13071;48.868;9.996;2023-08-06T01:44:29;95782.91;;;15.11;100.00
25080;BME280;13071;48.868;9.996;2023-08-06T01:46:55;95777.44;;;15.04;100.00
25080;BME280;13071;48.868;9.996;2023-08-06T01:49:22;95777.78;;;15.02;100.00
25080;BME280;13071;48.868;9.996;2023-08-06T01:58:36;95764.59;;;15.08;100.00
25080;BME280;13071;48.868;9.996;2023-08-06T02:01:03;95757.22;;;15.12;100.00
25080;BME280;13071;48.868;9.996;2023-08-06T02:03:29;95756.06;;;15.09;100.00
25080;BME280;13071;48.868;9.996;2023-08-06T02:05:56;95759.13;;;15.04;100.00
25080;BME280;13071;48.868;9.996;2023-08-06T02:08:23;95754.84;;;15.03;100.00
25080;BME280;13071;48.868;9.996;2023-08-06T02:10:49;95748.97;;;14.98;100.00
25080;BME280;13071;48.868;9.996;2023-08-06T02:13:16;95746.97;;;14.95;100.00
25080;BME280;13071;48.868;9.996;2023-08-06T02:15:44;95747.03;;;14.98;100.00
25080;BME280;13071;48.868;9.996;2023-08-06T02:18:13;95744.66;;;14.97;100.00
25080;BME280;13071;48.868;9.996;2023-08-06T02:20:40;95732.47;;;14.80;100.00
25080;BME280;13071;48.868;9.996;2023-08-06T02:23:06;95733.31;;;14.84;100.00
25080;BME280;13071;48.868;9.996;2023-08-06T02:25:33;95736.84;;;14.88;100.00
25080;BME280;13071;48.868;9.996;2023-08-06T02:28:00;95728.28;;;14.90;100.00
25080;BME280;13071;48.868;9.996;2023-08-06T02:30:26;95733.69;;;14.86;100.00
25080;BME280;13071;48.868;9.996;2023-08-06T02:32:54;95732.56;;;14.91;100.00
25080;BME280;13071;48.868;9.996;2023-08-06T02:35:22;95729.03;;;14.87;100.00
25080;BME280;13071;48.868;9.996;2023-08-06T02:37:48;95723.22;;;14.88;100.00
25080;BME280;13071;48.868;9.996;2023-08-06T02:40:15;95728.66;;;14.88;100.00
25080;BME280;13071;48.868;9.996;2023-08-06T02:42:42;95727.50;;;14.89;100.00
25080;BME280;13071;48.868;9.996;2023-08-06T02:45:09;95722.81;;;14.86;100.00
25080;BME280;13071;48.868;9.996;2023-08-06T02:47:35;95727.91;;;14.95;100.00
25080;BME280;13071;48.868;9.996;2023-08-06T02:50:04;95720.91;;;14.94;100.00
25080;BME280;13071;48.868;9.996;2023-08-06T02:52:31;95711.19;;;14.96;100.00
25080;BME280;13071;48.868;9.996;2023-08-06T02:54:58;95707.31;;;14.97;100.00
25080;BME280;13071;48.868;9.996;2023-08-06T02:57:25;95710.81;;;14.98;100.00
25080;BME280;13071;48.868;9.996;2023-08-06T02:59:52;95698.38;;;15.00;100.00
25080;BME280;13071;48.868;9.996;2023-08-06T03:02:18;95701.44;;;14.95;100.00
25080;BME280;13071;48.868;9.996;2023-08-06T03:04:45;95695.63;;;14.97;100.00
25080;BME280;13071;48.868;9.996;2023-08-06T03:07:13;95696.78;;;14.96;100.00
25080;BME280;13071;48.868;9.996;2023-08-06T03:09:40;95684.72;;;14.97;100.00
25080;BME280;13071;48.868;9.996;2023-08-06T03:12:07;95689.41;;;15.00;100.00
25080;BME280;13071;48.868;9.996;2023-08-06T03:14:34;95685.09;;;14.95;100.00
25080;BME280;13071;48.868;9.996;2023-08-06T03:17:00;95683.56;;;14.94;100.00
25080;BME280;13071;48.868;9.996;2023-08-06T03:19:27;95686.31;;;15.01;100.00
25080;BME280;13071;48.868;9.996;2023-08-06T03:21:54;95675.75;;;14.93;100.00
25080;BME280;13071;48.868;9.996;2023-08-06T03:24:22;95682.03;;;15.00;100.00
25080;BME280;13071;48.868;9.996;2023-08-06T03:26:48;95680.00;;;14.90;100.00
25080;BME280;13071;48.868;9.996;2023-08-06T03:29:15;95684.31;;;14.95;100.00
25080;BME280;13071;48.868;9.996;2023-08-06T03:31:42;95682.75;;;14.90;100.00
25080;BME280;13071;48.868;9.996;2023-08-06T03:34:08;95683.09;;;14.85;100.00
25080;BME280;13071;48.868;9.996;2023-08-06T03:36:35;95675.69;;;14.79;100.00
25080;BME280;13071;48.868;9.996;2023-08-06T03:39:01;95690.09;;;14.79;100.00
25080;BME280;13071;48.868;9.996;2023-08-06T03:41:30;95695.56;;;14.86;100.00
25080;BME280;13071;48.868;9.996;2023-08-06T03:43:56;95692.81;;;14.79;100.00
25080;BME280;13071;48.868;9.996;2023-08-06T03:46:23;95698.22;;;14.76;100.00
25080;BME280;13071;48.868;9.996;2023-08-06T03:48:51;95678.75;;;14.74;100.00
25080;BME280;13071;48.868;9.996;2023-08-06T03:51:17;95671.75;;;14.76;100.00
25080;BME280;13071;48.868;9.996;2023-08-06T03:53:44;95669.81;;;14.73;100.00
25080;BME280;13071;48.868;9.996;2023-08-06T03:56:10;95673.31;;;14.74;100.00
25080;BME280;13071;48.868;9.996;2023-08-06T03:58:38;95670.25;;;14.82;100.00
25080;BME280;13071;48.868;9.996;2023-08-06T04:01:05;95669.44;;;14.78;100.00
25080;BME280;13071;48.868;9.996;2023-08-06T04:03:32;95669.84;;;14.80;100.00
25080;BME280;13071;48.868;9.996;2023-08-06T04:05:58;95663.22;;;14.78;100.00
25080;BME280;13071;48.868;9.996;2023-08-06T04:08:26;95666.72;;;14.75;100.00
25080;BME280;13071;48.868;9.996;2023-08-06T04:10:53;95667.53;;;14.82;100.00
25080;BME280;13071;48.868;9.996;2023-08-06T04:13:19;95662.44;;;14.77;100.00
25080;BME280;13071;48.868;9.996;2023-08-06T04:15:50;95658.50;;;14.71;100.00
25080;BME280;13071;48.868;9.996;2023-08-06T04:18:17;95656.19;;;14.69;100.00
25080;BME280;13071;48.868;9.996;2023-08-06T04:20:44;95660.06;;;14.72;100.00
25080;BME280;13071;48.868;9.996;2023-08-06T04:23:11;95660.41;;;14.67;100.00
25080;BME280;13071;48.868;9.996;2023-08-06T04:25:38;95658.47;;;14.64;100.00
25080;BME280;13071;48.868;9.996;2023-08-06T04:28:05;95653.47;;;14.77;100.00
25080;BME280;13071;48.868;9.996;2023-08-06T04:30:31;95652.31;;;14.78;100.00
25080;BME280;13071;48.868;9.996;2023-08-06T04:32:59;95652.34;;;14.81;100.00
25080;BME280;13071;48.868;9.996;2023-08-06T04:35:26;95658.66;;;14.96;100.00
25080;BME280;13071;48.868;9.996;2023-08-06T04:37:53;95656.38;;;15.08;100.00
25080;BME280;13071;48.868;9.996;2023-08-06T04:40:19;95653.41;;;15.45;100.00
25080;BME280;13071;48.868;9.996;2023-08-06T04:42:46;95668.81;;;16.31;100.00
25080;BME280;13071;48.868;9.996;2023-08-06T04:45:12;95652.81;;;16.90;96.42
25080;BME280;13071;48.868;9.996;2023-08-06T04:47:39;95658.31;;;16.72;92.98
25080;BME280;13071;48.868;9.996;2023-08-06T04:50:07;95663.00;;;16.33;94.76
25080;BME280;13071;48.868;9.996;2023-08-06T04:52:34;95662.19;;;16.22;95.80
25080;BME280;13071;48.868;9.996;2023-08-06T04:55:01;95663.34;;;15.92;97.29
25080;BME280;13071;48.868;9.996;2023-08-06T04:57:28;95652.38;;;15.75;99.00
25080;BME280;13071;48.868;9.996;2023-08-06T04:59:55;95644.94;;;15.54;100.00
25080;BME280;13071;48.868;9.996;2023-08-06T05:02:22;95648.81;;;15.53;100.00
25080;BME280;13071;48.868;9.996;2023-08-06T05:04:48;95653.41;;;15.42;100.00
25080;BME280;13071;48.868;9.996;2023-08-06T05:07:16;95658.03;;;15.34;100.00
25080;BME280;13071;48.868;9.996;2023-08-06T05:09:43;95657.66;;;15.32;100.00
25080;BME280;13071;48.868;9.996;2023-08-06T05:12:10;95662.00;;;15.47;100.00
25080;BME280;13071;48.868;9.996;2023-08-06T05:14:37;95646.50;;;15.62;99.13
25080;BME280;13071;48.868;9.996;2023-08-06T05:17:03;95653.81;;;15.47;98.15
25080;BME280;13071;48.868;9.996;2023-08-06T05:19:30;95655.72;;;15.40;98.32
25080;BME280;13071;48.868;9.996;2023-08-06T05:21:57;95654.94;;;15.39;97.27
25080;BME280;13071;48.868;9.996;2023-08-06T05:24:27;95656.09;;;15.28;98.91
25080;BME280;13071;48.868;9.996;2023-08-06T05:26:54;95653.72;;;15.23;100.00
25080;BME280;13071;48.868;9.996;2023-08-06T05:29:21;95651.00;;;15.19;100.00
25080;BME280;13071;48.868;9.996;2023-08-06T05:31:47;95654.88;;;15.22;99.61
25080;BME280;13071;48.868;9.996;2023-08-06T05:34:14;95662.28;;;15.25;99.50
25080;BME280;13071;48.868;9.996;2023-08-06T05:36:41;95662.69;;;15.27;98.33
25080;BME280;13071;48.868;9.996;2023-08-06T05:39:07;95663.00;;;15.14;99.85
25080;BME280;13071;48.868;9.996;2023-08-06T05:41:35;95659.88;;;15.05;99.80
25080;BME280;13071;48.868;9.996;2023-08-06T05:44:02;95657.91;;;15.06;100.00
25080;BME280;13071;48.868;9.996;2023-08-06T05:46:29;95653.69;;;15.16;100.00
25080;BME280;13071;48.868;9.996;2023-08-06T05:48:55;95659.56;;;15.21;99.50
25080;BME280;13071;48.868;9.996;2023-08-06T05:51:22;95663.00;;;15.07;99.76
25080;BME280;13071;48.868;9.996;2023-08-06T05:53:51;95657.06;;;14.88;100.00
25080;BME280;13071;48.868;9.996;2023-08-06T05:56:17;95664.44;;;14.87;99.71
25080;BME280;13071;48.868;9.996;2023-08-06T05:58:45;95662.53;;;14.95;100.00
25080;BME280;13071;48.868;9.996;2023-08-06T06:01:12;95663.56;;;14.73;99.07
25080;BME280;13071;48.868;9.996;2023-08-06T06:03:39;95660.44;;;14.70;100.00
25080;BME280;13071;48.868;9.996;2023-08-06T06:06:06;95652.31;;;14.74;100.00
25080;BME280;13071;48.868;9.996;2023-08-06T06:08:32;95664.72;;;14.72;100.00
25080;BME280;13071;48.868;9.996;2023-08-06T06:10:59;95668.25;;;14.76;100.00
25080;BME280;13071;48.868;9.996;2023-08-06T06:13:26;95666.28;;;14.69;100.00
25080;BME280;13071;48.868;9.996;2023-08-06T06:15:55;95672.91;;;14.72;100.00
25080;BME280;13071;48.868;9.996;2023-08-06T06:18:22;95677.97;;;14.73;100.00
25080;BME280;13071;48.868;9.996;2023-08-06T06:20:48;95668.56;;;14.63;100.00
25080;BME280;13071;48.868;9.996;2023-08-06T06:23:15;95679.09;;;14.65;100.00
25080;BME280;13071;48.868;9.996;2023-08-06T06:25:42;95676.84;;;14.78;100.00
25080;BME280;13071;48.868;9.996;2023-08-06T06:28:09;95665.22;;;14.88;100.00
25080;BME280;13071;48.868;9.996;2023-08-06T06:30:36;95667.91;;;14.81;100.00
25080;BME280;13071;48.868;9.996;2023-08-06T06:33:04;95669.94;;;14.98;100.00
25080;BME280;13071;48.868;9.996;2023-08-06T06:35:31;95672.38;;;15.17;100.00
25080;BME280;13071;48.868;9.996;2023-08-06T06:37:57;95668.94;;;15.24;100.00
25080;BME280;13071;48.868;9.996;2023-08-06T06:40:24;95677.53;;;15.40;99.16
25080;BME280;13071;48.868;9.996;2023-08-06T06:42:51;95688.44;;;15.36;97.43
25080;BME280;13071;48.868;9.996;2023-08-06T06:45:17;95678.25;;;15.23;99.58
25080;BME280;13071;48.868;9.996;2023-08-06T06:47:44;95675.47;;;15.12;99.47
25080;BME280;13071;48.868;9.996;2023-08-06T06:50:12;95675.13;;;15.21;98.45
25080;BME280;13071;48.868;9.996;2023-08-06T06:52:38;95674.38;;;15.27;99.18
25080;BME280;13071;48.868;9.996;2023-08-06T06:55:05;95673.59;;;15.23;99.30
25080;BME280;13071;48.868;9.996;2023-08-06T06:57:32;95676.25;;;15.12;98.43
25080;BME280;13071;48.868;9.996;2023-08-06T06:59:59;95675.47;;;15.12;100.00
25080;BME280;13071;48.868;9.996;2023-08-06T07:02:25;95672.00;;;15.19;100.00
25080;BME280;13071;48.868;9.996;2023-08-06T07:04:52;95669.59;;;15.06;99.85
25080;BME280;13071;48.868;9.996;2023-08-06T07:07:23;95665.34;;;15.09;100.00
25080;BME280;13071;48.868;9.996;2023-08-06T07:09:51;95667.34;;;15.19;100.00
25080;BME280;13071;48.868;9.996;2023-08-06T07:12:17;95660.72;;;15.20;98.78
25080;BME280;13071;48.868;9.996;2023-08-06T07:14:44;95670.44;;;15.21;98.63
25080;BME280;13071;48.868;9.996;2023-08-06T07:17:11;95670.50;;;15.28;98.13
25080;BME280;13071;48.868;9.996;2023-08-06T07:19:37;95682.19;;;15.36;97.56
25080;BME280;13071;48.868;9.996;2023-08-06T07:22:04;95664.63;;;15.26;97.88
25080;BME280;13071;48.868;9.996;2023-08-06T07:24:32;95675.47;;;15.12;97.09
25080;BME280;13071;48.868;9.996;2023-08-06T07:26:59;95680.56;;;15.21;98.47
25080;BME280;13071;48.868;9.996;2023-08-06T07:29:26;95668.19;;;15.41;99.15
25080;BME280;13071;48.868;9.996;2023-08-06T07:31:53;95677.97;;;15.45;98.74
25080;BME280;13071;48.868;9.996;2023-08-06T07:34:20;95673.34;;;15.57;100.00
25080;BME280;13071;48.868;9.996;2023-08-06T07:36:47;95671.03;;;15.66;97.57
25080;BME280;13071;48.868;9.996;2023-08-06T07:39:14;95674.19;;;15.75;97.82
25080;BME280;13071;48.868;9.996;2023-08-06T07:41:43;95673.00;;;15.65;99.25
25080;BME280;13071;48.868;9.996;2023-08-06T07:44:11;95679.25;;;15.76;97.43
25080;BME280;13071;48.868;9.996;2023-08-06T07:46:37;95677.28;;;15.63;97.93
25080;BME280;13071;48.868;9.996;2023-08-06T07:49:04;95672.97;;;15.58;96.46
25080;BME280;13071;48.868;9.996;2023-08-06T07:51:31;95672.19;;;15.54;97.08
25080;BME280;13071;48.868;9.996;2023-08-06T07:53:57;95677.66;;;15.54;97.51
25080;BME280;13071;48.868;9.996;2023-08-06T07:56:24;95681.13;;;15.51;98.71
25080;BME280;13071;48.868;9.996;2023-08-06T07:58:52;95682.75;;;15.63;97.76
25080;BME280;13071;48.868;9.996;2023-08-06T08:01:19;95671.50;;;15.78;97.82
25080;BME280;13071;48.868;9.996;2023-08-06T08:03:45;95673.06;;;16.01;97.30
25080;BME280;13071;48.868;9.996;2023-08-06T08:06:12;95670.75;;;16.06;97.62
25080;BME280;13071;48.868;9.996;2023-08-06T08:08:38;95673.09;;;16.15;95.67
25080;BME280;13071;48.868;9.996;2023-08-06T08:11:05;95678.94;;;16.10;96.36
25080;BME280;13071;48.868;9.996;2023-08-06T08:13:32;95675.78;;;15.83;95.47
25080;BME280;13071;48.868;9.996;2023-08-06T08:16:01;95674.53;;;15.55;95.47
25080;BME280;13071;48.868;9.996;2023-08-06T08:18:27;95677.66;;;15.61;96.59
25080;BME280;13071;48.868;9.996;2023-08-06T08:20:56;95679.13;;;15.44;95.61
25080;BME280;13071;48.868;9.996;2023-08-06T08:23:23;95681.41;;;15.28;97.13
25080;BME280;13071;48.868;9.996;2023-08-06T08:25:49;95679.69;;;14.99;97.10
25080;BME280;13071;48.868;9.996;2023-08-06T08:28:16;95678.56;;;15.03;99.73
25080;BME280;13071;48.868;9.996;2023-08-06T08:30:43;95672.63;;;14.87;99.12
25080;BME280;13071;48.868;9.996;2023-08-06T08:33:11;95688.16;;;14.87;100.00
25080;BME280;13071;48.868;9.996;2023-08-06T08:35:37;95681.09;;;14.75;100.00
25080;BME280;13071;48.868;9.996;2023-08-06T08:38:04;95676.81;;;14.74;100.00
25080;BME280;13071;48.868;9.996;2023-08-06T08:40:32;95674.97;;;14.89;100.00
25080;BME280;13071;48.868;9.996;2023-08-06T08:42:59;95683.09;;;14.85;100.00
25080;BME280;13071;48.868;9.996;2023-08-06T08:45:28;95681.59;;;14.91;100.00
25080;BME280;13071;48.868;9.996;2023-08-06T08:47:55;95679.25;;;14.90;100.00
25080;BME280;13071;48.868;9.996;2023-08-06T08:50:24;95680.50;;;15.06;100.00
25080;BME280;13071;48.868;9.996;2023-08-06T08:52:51;95678.19;;;15.08;99.59
25080;BME280;13071;48.868;9.996;2023-08-06T08:55:19;95687.59;;;15.25;98.43
25080;BME280;13071;48.868;9.996;2023-08-06T08:57:50;95675.78;;;15.00;99.11
25080;BME280;13071;48.868;9.996;2023-08-06T09:00:17;95678.63;;;15.18;100.00
25080;BME280;13071;48.868;9.996;2023-08-06T09:02:44;95680.63;;;15.28;100.00
25080;BME280;13071;48.868;9.996;2023-08-06T09:05:12;95689.59;;;15.35;100.00
25080;BME280;13071;48.868;9.996;2023-08-06T09:07:42;95690.75;;;15.27;99.05
25080;BME280;13071;48.868;9.996;2023-08-06T09:10:11;95694.97;;;15.14;98.08
25080;BME280;13071;48.868;9.996;2023-08-06T09:12:38;95694.91;;;15.10;100.00
25080;BME280;13071;48.868;9.996;2023-08-06T09:15:06;95690.31;;;15.22;100.00
25080;BME280;13071;48.868;9.996;2023-08-06T09:17:33;95693.47;;;15.27;98.08
25080;BME280;13071;48.868;9.996;2023-08-06T09:20:09;95690.38;;;15.32;98.04
25080;BME280;13071;48.868;9.996;2023-08-06T09:22:36;95696.25;;;15.38;97.26
25080;BME280;13071;48.868;9.996;2023-08-06T09:25:05;95695.47;;;15.37;97.51
25080;BME280;13071;48.868;9.996;2023-08-06T09:27:35;95687.72;;;15.46;97.51
25080;BME280;13071;48.868;9.996;2023-08-06T09:30:03;95685.44;;;15.55;98.52
25080;BME280;13071;48.868;9.996;2023-08-06T09:32:44;95687.78;;;15.64;97.71
25080;BME280;13071;48.868;9.996;2023-08-06T09:35:15;95687.44;;;15.73;97.06
25080;BME280;13071;48.868;9.996;2023-08-06T09:37:42;95688.19;;;15.66;96.36
25080;BME280;13071;48.868;9.996;2023-08-06T09:40:25;95685.75;;;15.50;97.43
25080;BME280;13071;48.868;9.996;2023-08-06T09:42:52;95690.78;;;15.38;96.86
25080;BME280;13071;48.868;9.996;2023-08-06T09:45:18;95689.59;;;15.35;98.30
25080;BME280;13071;48.868;9.996;2023-08-06T09:47:47;95690.78;;;15.38;97.25
25080;BME280;13071;48.868;9.996;2023-08-06T09:50:15;95683.72;;;15.23;97.77
25080;BME280;13071;48.868;9.996;2023-08-06T09:52:43;95680.56;;;15.17;98.24
25080;BME280;13071;48.868;9.996;2023-08-06T09:55:12;95687.72;;;15.50;98.97
25080;BME280;13071;48.868;9.996;2023-08-06T09:57:41;95686.31;;;15.88;97.95
25080;BME280;13071;48.868;9.996;2023-08-06T10:00:08;95677.41;;;16.12;97.68
25080;BME280;13071;48.868;9.996;2023-08-06T10:02:37;95685.22;;;16.28;95.25
25080;BME280;13071;48.868;9.996;2023-08-06T10:05:05;95687.53;;;16.54;96.52
25080;BME280;13071;48.868;9.996;2023-08-06T10:07:32;95680.13;;;16.40;93.78
25080;BME280;13071;48.868;9.996;2023-08-06T10:09:59;95688.72;;;16.21;94.31
25080;BME280;13071;48.868;9.996;2023-08-06T10:12:29;95698.03;;;16.10;95.74
25080;BME280;13071;48.868;9.996;2023-08-06T10:15:01;95679.69;;;15.89;95.80
25080;BME280;13071;48.868;9.996;2023-08-06T10:17:31;95680.47;;;15.93;95.63
25080;BME280;13071;48.868;9.996;2023-08-06T10:19:58;95683.97;;;15.86;98.10
25080;BME280;13071;48.868;9.996;2023-08-06T10:22:26;95690.22;;;15.83;97.35
25080;BME280;13071;48.868;9.996;2023-08-06T10:24:53;95684.78;;;16.01;98.04
25080;BME280;13071;48.868;9.996;2023-08-06T10:27:29;95685.94;;;15.93;100.00
25080;BME280;13071;48.868;9.996;2023-08-06T10:29:56;95681.25;;;15.86;99.71
25080;BME280;13071;48.868;9.996;2023-08-06T10:32:48;95674.63;;;15.87;97.12
25080;BME280;13071;48.868;9.996;2023-08-06T10:35:28;95695.69;;;16.01;98.11
25080;BME280;13071;48.868;9.996;2023-08-06T10:37:58;95676.19;;;15.92;98.60
25080;BME280;13071;48.868;9.996;2023-08-06T10:40:26;95688.22;;;15.80;98.81
25080;BME280;13071;48.868;9.996;2023-08-06T10:42:54;95682.78;;;15.84;100.00
25080;BME280;13071;48.868;9.996;2023-08-06T10:45:21;95692.50;;;15.67;99.05
25080;BME280;13071;48.868;9.996;2023-08-06T10:47:55;95690.59;;;15.85;100.00
25080;BME280;13071;48.868;9.996;2023-08-06T10:50:23;95680.91;;;16.13;100.00
25080;BME280;13071;48.868;9.996;2023-08-06T10:52:50;95683.25;;;16.39;98.86
25080;BME280;13071;48.868;9.996;2023-08-06T10:55:24;95689.50;;;16.43;96.74
25080;BME280;13071;48.868;9.996;2023-08-06T10:57:51;95683.25;;;16.53;99.44
25080;BME280;13071;48.868;9.996;2023-08-06T11:00:18;95689.50;;;16.54;97.08
25080;BME280;13071;48.868;9.996;2023-08-06T11:02:47;95680.13;;;16.30;96.54
25080;BME280;13071;48.868;9.996;2023-08-06T11:05:15;95684.03;;;16.32;97.54
25080;BME280;13071;48.868;9.996;2023-08-06T11:07:42;95667.63;;;16.01;96.38
25080;BME280;13071;48.868;9.996;2023-08-06T11:10:10;95664.81;;;15.58;93.52
25080;BME280;13071;48.868;9.996;2023-08-06T11:12:38;95667.84;;;15.46;97.28
25080;BME280;13071;48.868;9.996;2023-08-06T11:15:05;95669.13;;;15.84;99.96
25080;BME280;13071;48.868;9.996;2023-08-06T11:17:33;95674.25;;;16.07;98.85
25080;BME280;13071;48.868;9.996;2023-08-06T11:20:00;95661.38;;;15.96;97.95
25080;BME280;13071;48.868;9.996;2023-08-06T11:22:28;95672.69;;;15.91;98.36
25080;BME280;13071;48.868;9.996;2023-08-06T11:24:55;95674.25;;;15.99;99.59
25080;BME280;13071;48.868;9.996;2023-08-06T11:27:22;95672.25;;;15.79;98.16
25080;BME280;13071;48.868;9.996;2023-08-06T11:29:49;95666.41;;;15.73;100.00
25080;BME280;13071;48.868;9.996;2023-08-06T11:32:16;95669.13;;;15.80;100.00
25080;BME280;13071;48.868;9.996;2023-08-06T11:34:43;95674.22;;;15.82;100.00
25080;BME280;13071;48.868;9.996;2023-08-06T11:37:10;95673.47;;;15.95;100.00
25080;BME280;13071;48.868;9.996;2023-08-06T11:39:38;95679.34;;;16.12;99.20
25080;BME280;13071;48.868;9.996;2023-08-06T11:42:06;95679.34;;;16.12;100.00
25080;BME280;13071;48.868;9.996;2023-08-06T11:44:34;95676.22;;;16.13;100.00
25080;BME280;13071;48.868;9.996;2023-08-06T11:47:03;95689.44;;;15.97;98.50
25080;BME280;13071;48.868;9.996;2023-08-06T11:49:38;95677.72;;;15.86;99.68
25080;BME280;13071;48.868;9.996;2023-08-06T11:52:10;95692.75;;;15.41;100.00
25080;BME280;13071;48.868;9.996;2023-08-06T11:54:38;95692.19;;;15.07;100.00
25080;BME280;13071;48.868;9.996;2023-08-06T11:57:05;95697.28;;;15.12;100.00
25080;BME280;13071;48.868;9.996;2023-08-06T11:59:32;95703.16;;;15.21;100.00
25080;BME280;13071;48.868;9.996;2023-08-06T12:02:00;95712.75;;;14.94;100.00
25080;BME280;13071;48.868;9.996;2023-08-06T12:04:28;95706.00;;;14.77;100.00
25080;BME280;13071;48.868;9.996;2023-08-06T12:06:55;95716.56;;;14.86;100.00
25080;BME280;13071;48.868;9.996;2023-08-06T12:09:22;95721.75;;;15.05;99.62
25080;BME280;13071;48.868;9.996;2023-08-06T12:11:50;95727.31;;;15.19;100.00
25080;BME280;13071;48.868;9.996;2023-08-06T12:14:17;95719.44;;;15.10;97.40
25080;BME280;13071;48.868;9.996;2023-08-06T12:16:44;95723.72;;;15.04;97.36
25080;BME280;13071;48.868;9.996;2023-08-06T12:19:10;95724.81;;;14.93;98.00
25080;BME280;13071;48.868;9.996;2023-08-06T12:21:37;95719.09;;;15.16;98.93
25080;BME280;13071;48.868;9.996;2023-08-06T12:24:04;95731.09;;;15.04;95.59
25080;BME280;13071;48.868;9.996;2023-08-06T12:26:31;95727.97;;;15.02;96.56
25080;BME280;13071;48.868;9.996;2023-08-06T12:28:59;95738.41;;;14.93;98.02
25080;BME280;13071;48.868;9.996;2023-08-06T12:31:26;95726.81;;;15.06;97.28
25080;BME280;13071;48.868;9.996;2023-08-06T12:33:52;95745.63;;;15.22;98.14
25080;BME280;13071;48.868;9.996;2023-08-06T12:36:19;95747.13;;;15.16;97.34
25080;BME280;13071;48.868;9.996;2023-08-06T12:38:46;95744.31;;;15.05;98.26
25080;BME280;13071;48.868;9.996;2023-08-06T12:41:13;95751.72;;;15.05;99.61
25080;BME280;13071;48.868;9.996;2023-08-06T12:43:39;95757.59;;;15.10;100.00
25080;BME280;13071;48.868;9.996;2023-08-06T12:46:07;95753.00;;;15.22;99.59
25080;BME280;13071;48.868;9.996;2023-08-06T12:48:34;95760.72;;;15.09;97.77
25080;BME280;13071;48.868;9.996;2023-08-06T12:51:00;95763.75;;;14.97;97.94
25080;BME280;13071;48.868;9.996;2023-08-06T12:53:27;95783.38;;;14.69;98.71
25080;BME280;13071;48.868;9.996;2023-08-06T12:55:54;95763.50;;;14.65;98.17
25080;BME280;13071;48.868;9.996;2023-08-06T12:58:20;95811.06;;;14.75;99.40
25080;BME280;13071;48.868;9.996;2023-08-06T13:00:47;95798.06;;;14.57;98.93
25080;BME280;13071;48.868;9.996;2023-08-06T13:03:15;95790.66;;;14.54;99.62